Time;durP1;ratioP1;P1;durP2;ratioP2;P2;SDS_P1;SDS_P2;PMS_P1;PMS_P2;Temp;Humidity;BMP_temperature;BMP_pressure;BME280_temperature;BME280_humidity;BME280_pressure;Samples;Min_cycle;Max_cycle;Signal;HPM_P1;HPM_P2
2023/08/26 00:00:20;;;;;;;30.60;16.20;;;;;;;;;;5019214;28;20084;-65
2023/08/26 00:02:46;;;;;;;28.05;15.88;;;;;;;;;;5019132;28;20440;-65
2023/08/26 00:05:14;;;;;;;28.80;15.52;;;;;;;;;;5019011;28;20040;-63
2023/08/26 00:07:40;;;;;;;27.33;14.85;;;;;;;;;;5019082;28;20037;-64
2023/08/26 00:10:05;;;;;;;26.73;14.48;;;;;;;;;;5018821;28;20030;-64
2023/08/26 00:12:31;;;;;;;28.67;14.10;;;;;;;;;;5018882;28;20030;-63
2023/08/26 00:14:57;;;;;;;29.35;16.17;;;;;;;;;;5019576;28;20021;-64
2023/08/26 00:17:22;;;;;;;27.67;14.95;;;;;;;;;;5019095;28;20452;-64
2023/08/26 00:19:50;;;;;;;26.58;13.18;;;;;;;;;;5021601;28;20413;-63
2023/08/26 00:22:19;;;;;;;26.15;13.50;;;;;;;;;;5038291;28;20032;-64
2023/08/26 00:24:44;;;;;;;25.58;14.07;;;;;;;;;;5038623;28;20079;-64
2023/08/26 00:27:10;;;;;;;27.25;15.07;;;;;;;;;;5038169;28;20119;-64
2023/08/26 00:29:35;;;;;;;24.23;13.57;;;;;;;;;;5038156;28;20085;-64
2023/08/26 00:32:01;;;;;;;20.10;13.25;;;;;;;;;;5031207;28;20025;-64
2023/08/26 00:34:26;;;;;;;24.83;13.48;;;;;;;;;;5038546;28;20028;-63
2023/08/26 00:36:52;;;;;;;23.30;12.75;;;;;;;;;;5038466;28;20021;-63
2023/08/26 00:39:17;;;;;;;21.23;12.38;;;;;;;;;;5038443;28;20117;-63
2023/08/26 00:41:43;;;;;;;23.27;13.45;;;;;;;;;;5037936;28;20190;-64
2023/08/26 00:44:08;;;;;;;23.70;12.82;;;;;;;;;;5038258;28;20025;-63
2023/08/26 00:46:34;;;;;;;22.65;12.45;;;;;;;;;;5038036;28;20020;-63
2023/08/26 00:49:00;;;;;;;19.10;12.25;;;;;;;;;;5038150;28;20033;-63
2023/08/26 00:51:26;;;;;;;19.48;11.15;;;;;;;;;;5020835;28;20021;-64
2023/08/26 00:53:52;;;;;;;20.17;10.85;;;;;;;;;;5038087;28;20108;-63
2023/08/26 00:56:17;;;;;;;19.85;11.20;;;;;;;;;;5020765;28;20037;-64
2023/08/26 00:58:43;;;;;;;21.30;11.88;;;;;;;;;;5037948;28;20039;-63
2023/08/26 01:01:09;;;;;;;18.25;10.98;;;;;;;;;;5038064;28;20021;-64
2023/08/26 01:03:34;;;;;;;18.98;11.40;;;;;;;;;;5037723;28;20522;-63
2023/08/26 01:06:00;;;;;;;21.80;11.75;;;;;;;;;;5037436;28;20107;-63
2023/08/26 01:08:26;;;;;;;18.88;11.02;;;;;;;;;;5037643;28;20379;-63
2023/08/26 01:11:01;;;;;;;17.65;10.07;;;;;;;;;;5021534;28;20022;-64
2023/08/26 01:13:30;;;;;;;18.52;10.68;;;;;;;;;;5017956;28;20028;-64
2023/08/26 01:15:56;;;;;;;17.05;9.63;;;;;;;;;;5001503;28;20083;-64
2023/08/26 01:18:21;;;;;;;17.65;10.60;;;;;;;;;;5017391;28;20056;-63
2023/08/26 01:20:48;;;;;;;16.98;9.80;;;;;;;;;;5030302;28;20091;-66
2023/08/26 01:23:24;;;;;;;15.30;9.40;;;;;;;;;;4981671;28;20034;-64
2023/08/26 01:25:52;;;;;;;15.18;9.25;;;;;;;;;;4997481;28;20334;-64
2023/08/26 01:28:17;;;;;;;17.08;9.32;;;;;;;;;;4998001;28;20070;-64
2023/08/26 01:30:43;;;;;;;15.65;9.27;;;;;;;;;;4997968;28;20030;-63
2023/08/26 01:33:11;;;;;;;17.98;9.90;;;;;;;;;;5019492;28;20025;-64
2023/08/26 01:35:38;;;;;;;14.07;9.00;;;;;;;;;;5037268;28;20515;-63
2023/08/26 01:38:05;;;;;;;14.00;8.27;;;;;;;;;;5037306;28;20021;-63
2023/08/26 01:40:30;;;;;;;14.75;8.77;;;;;;;;;;5037131;28;20116;-64
2023/08/26 01:42:57;;;;;;;14.57;9.00;;;;;;;;;;5036776;28;20116;-64
2023/08/26 01:45:23;;;;;;;20.73;9.98;;;;;;;;;;5037072;28;20027;-64
2023/08/26 01:47:51;;;;;;;14.35;8.75;;;;;;;;;;5037526;28;20025;-64
2023/08/26 01:50:17;;;;;;;14.18;8.48;;;;;;;;;;5037080;28;20032;-63
2023/08/26 01:52:42;;;;;;;15.55;8.35;;;;;;;;;;5020523;28;20377;-63
2023/08/26 01:55:08;;;;;;;14.45;8.75;;;;;;;;;;5024163;28;20034;-64
2023/08/26 01:57:34;;;;;;;15.20;8.27;;;;;;;;;;5033516;28;20342;-65
2023/08/26 02:00:00;;;;;;;12.18;8.15;;;;;;;;;;5017018;28;20464;-64
2023/08/26 02:02:25;;;;;;;13.80;8.52;;;;;;;;;;5022870;28;20029;-64
2023/08/26 02:04:52;;;;;;;12.77;8.52;;;;;;;;;;5017755;28;20040;-64
2023/08/26 02:07:18;;;;;;;17.17;8.45;;;;;;;;;;5016073;28;20037;-64
2023/08/26 02:09:44;;;;;;;12.80;8.00;;;;;;;;;;5032356;28;20030;-63
2023/08/26 02:12:10;;;;;;;13.05;7.93;;;;;;;;;;5016795;28;20025;-63
2023/08/26 02:14:35;;;;;;;13.35;7.95;;;;;;;;;;5016863;28;20082;-63
2023/08/26 02:17:01;;;;;;;14.65;7.38;;;;;;;;;;5016776;28;20060;-63
2023/08/26 02:19:26;;;;;;;13.00;7.85;;;;;;;;;;5020592;28;20414;-63
2023/08/26 02:21:52;;;;;;;13.15;7.40;;;;;;;;;;5036159;28;20360;-63
2023/08/26 02:24:18;;;;;;;11.98;7.53;;;;;;;;;;5036054;28;20495;-64
2023/08/26 02:26:43;;;;;;;12.18;7.57;;;;;;;;;;5035992;28;20112;-64
2023/08/26 02:29:09;;;;;;;11.02;7.10;;;;;;;;;;5036321;28;20029;-63
2023/08/26 02:31:34;;;;;;;17.17;7.47;;;;;;;;;;5035730;28;20037;-64
2023/08/26 02:34:00;;;;;;;10.38;6.85;;;;;;;;;;5036453;28;20455;-64
2023/08/26 02:36:25;;;;;;;10.27;7.10;;;;;;;;;;5036270;28;20368;-64
2023/08/26 02:38:53;;;;;;;11.27;6.97;;;;;;;;;;5036210;28;20049;-63
2023/08/26 02:41:18;;;;;;;10.75;7.10;;;;;;;;;;5034343;28;20036;-63
2023/08/26 02:43:44;;;;;;;9.93;6.78;;;;;;;;;;5036069;28;20025;-64
2023/08/26 02:46:09;;;;;;;9.93;6.82;;;;;;;;;;5035884;28;20033;-64
2023/08/26 02:48:35;;;;;;;8.85;6.32;;;;;;;;;;5035461;28;20063;-65
2023/08/26 02:51:01;;;;;;;10.70;6.32;;;;;;;;;;5015959;28;20075;-63
2023/08/26 02:53:27;;;;;;;11.77;6.70;;;;;;;;;;5033499;28;20037;-63
2023/08/26 02:55:53;;;;;;;12.45;6.93;;;;;;;;;;5035836;28;20037;-64
2023/08/26 02:58:19;;;;;;;10.23;6.80;;;;;;;;;;5036373;28;20032;-64
2023/08/26 03:00:48;;;;;;;9.48;6.50;;;;;;;;;;5031828;28;20452;-63
2023/08/26 03:03:14;;;;;;;9.65;6.65;;;;;;;;;;4996310;28;20034;-63
2023/08/26 03:05:40;;;;;;;10.60;6.63;;;;;;;;;;4996274;28;20038;-63
2023/08/26 03:08:07;;;;;;;10.93;6.25;;;;;;;;;;4996373;28;20022;-63
2023/08/26 03:10:36;;;;;;;9.32;6.18;;;;;;;;;;5014412;28;20014;-63
2023/08/26 03:13:01;;;;;;;8.75;5.78;;;;;;;;;;5040676;28;20028;-63
2023/08/26 03:15:27;;;;;;;11.68;6.82;;;;;;;;;;5015912;28;20030;-63
2023/08/26 03:17:53;;;;;;;8.57;5.55;;;;;;;;;;5015902;28;20029;-63
2023/08/26 03:20:21;;;;;;;8.93;6.05;;;;;;;;;;5019661;28;20025;-64
2023/08/26 03:22:47;;;;;;;10.40;6.38;;;;;;;;;;5022462;28;20033;-64
2023/08/26 03:25:12;;;;;;;9.20;6.30;;;;;;;;;;5021945;28;20025;-64
2023/08/26 03:27:38;;;;;;;7.63;5.90;;;;;;;;;;5021703;28;20029;-64
2023/08/26 03:30:03;;;;;;;9.75;6.20;;;;;;;;;;5022325;28;20086;-63
2023/08/26 03:32:29;;;;;;;9.27;6.10;;;;;;;;;;5022068;28;20094;-64
2023/08/26 03:34:55;;;;;;;7.25;5.72;;;;;;;;;;5022259;28;20026;-64
2023/08/26 03:37:20;;;;;;;10.00;5.70;;;;;;;;;;5022216;28;20479;-63
2023/08/26 03:39:46;;;;;;;8.13;5.53;;;;;;;;;;5021959;28;20025;-64
2023/08/26 03:42:11;;;;;;;10.05;5.93;;;;;;;;;;5022081;28;20040;-64
2023/08/26 03:44:37;;;;;;;7.45;5.38;;;;;;;;;;5022216;28;20555;-64
2023/08/26 03:47:03;;;;;;;8.27;5.80;;;;;;;;;;5005497;28;20033;-63
2023/08/26 03:49:28;;;;;;;8.00;5.45;;;;;;;;;;5022198;28;20084;-63
2023/08/26 03:51:54;;;;;;;8.93;6.03;;;;;;;;;;5033632;28;20087;-63
2023/08/26 03:54:19;;;;;;;8.73;5.60;;;;;;;;;;5041691;28;20339;-63
2023/08/26 03:56:45;;;;;;;7.35;5.20;;;;;;;;;;5041865;28;20467;-63
2023/08/26 03:59:10;;;;;;;8.13;5.47;;;;;;;;;;5041854;28;20430;-63
2023/08/26 04:01:36;;;;;;;8.30;5.88;;;;;;;;;;5041271;28;20024;-63
2023/08/26 04:04:01;;;;;;;7.90;6.00;;;;;;;;;;5041707;28;20040;-63
2023/08/26 04:06:27;;;;;;;8.35;5.20;;;;;;;;;;5041456;28;20036;-63
2023/08/26 04:08:52;;;;;;;7.68;4.93;;;;;;;;;;5041835;28;20375;-63
2023/08/26 04:11:18;;;;;;;7.28;5.18;;;;;;;;;;5041410;28;20074;-64
2023/08/26 04:13:45;;;;;;;8.90;5.43;;;;;;;;;;5041747;28;20055;-63
2023/08/26 04:16:11;;;;;;;7.45;5.20;;;;;;;;;;5041792;28;20029;-64
2023/08/26 04:18:36;;;;;;;6.22;4.93;;;;;;;;;;5022890;28;20035;-63
2023/08/26 04:21:02;;;;;;;9.88;5.55;;;;;;;;;;5021872;28;20025;-63
2023/08/26 04:23:27;;;;;;;5.90;4.50;;;;;;;;;;5005599;28;20029;-63
2023/08/26 04:25:59;;;;;;;8.15;5.25;;;;;;;;;;5022210;28;20108;-64
2023/08/26 04:28:25;;;;;;;7.53;5.55;;;;;;;;;;5039507;28;20059;-63
2023/08/26 04:30:50;;;;;;;6.05;4.82;;;;;;;;;;5035922;28;20422;-64
2023/08/26 04:33:16;;;;;;;8.20;4.85;;;;;;;;;;5038087;28;20025;-63
2023/08/26 04:35:42;;;;;;;5.60;4.70;;;;;;;;;;5054897;28;20048;-65
2023/08/26 04:38:07;;;;;;;7.90;5.13;;;;;;;;;;5038437;28;20025;-64
2023/08/26 04:40:33;;;;;;;7.70;5.35;;;;;;;;;;5038290;28;20024;-64
2023/08/26 04:42:58;;;;;;;7.18;4.97;;;;;;;;;;5033592;28;20083;-64
2023/08/26 04:45:24;;;;;;;5.93;4.70;;;;;;;;;;5038452;28;20399;-63
2023/08/26 04:47:49;;;;;;;8.23;4.78;;;;;;;;;;5038437;28;20055;-63
2023/08/26 04:50:15;;;;;;;5.65;4.47;;;;;;;;;;5038257;28;20021;-63
2023/08/26 04:52:42;;;;;;;7.93;4.78;;;;;;;;;;5037913;28;20359;-64
2023/08/26 04:55:08;;;;;;;6.78;5.05;;;;;;;;;;5018260;28;20036;-64
2023/08/26 04:57:34;;;;;;;6.57;4.75;;;;;;;;;;5018191;28;20021;-63
2023/08/26 04:59:59;;;;;;;6.43;4.53;;;;;;;;;;5001926;28;20045;-63
2023/08/26 05:02:25;;;;;;;7.50;4.30;;;;;;;;;;5035565;28;20116;-63
2023/08/26 05:04:51;;;;;;;6.95;4.25;;;;;;;;;;5037785;28;20116;-64
2023/08/26 05:07:20;;;;;;;5.30;4.07;;;;;;;;;;5037536;28;20029;-64
2023/08/26 05:09:45;;;;;;;5.78;4.20;;;;;;;;;;5053997;28;20029;-63
2023/08/26 05:12:11;;;;;;;4.63;4.18;;;;;;;;;;5033697;28;20078;-63
2023/08/26 05:14:37;;;;;;;4.78;3.70;;;;;;;;;;5017774;28;20053;-63
2023/08/26 05:17:02;;;;;;;4.85;3.75;;;;;;;;;;5017901;28;20032;-63
2023/08/26 05:19:28;;;;;;;5.30;4.00;;;;;;;;;;5028235;28;20033;-63
2023/08/26 05:21:55;;;;;;;5.75;4.22;;;;;;;;;;5037512;28;20025;-64
2023/08/26 05:24:21;;;;;;;6.43;3.80;;;;;;;;;;5037145;28;20029;-64
2023/08/26 05:26:46;;;;;;;4.68;3.50;;;;;;;;;;5037211;28;20387;-63
2023/08/26 05:29:12;;;;;;;5.30;3.90;;;;;;;;;;5037523;28;20032;-63
2023/08/26 05:31:38;;;;;;;5.47;3.67;;;;;;;;;;5037766;28;20037;-63
2023/08/26 05:34:03;;;;;;;5.55;3.40;;;;;;;;;;5020768;28;20030;-63
2023/08/26 05:36:29;;;;;;;4.30;3.35;;;;;;;;;;5017538;28;20022;-63
2023/08/26 05:38:54;;;;;;;3.47;3.17;;;;;;;;;;5017516;28;20022;-64
2023/08/26 05:41:20;;;;;;;4.43;3.35;;;;;;;;;;5017766;28;20103;-64
2023/08/26 05:43:45;;;;;;;4.22;3.75;;;;;;;;;;5029675;28;20037;-63
2023/08/26 05:46:11;;;;;;;4.55;3.53;;;;;;;;;;5019143;28;20468;-63
2023/08/26 05:48:36;;;;;;;4.80;3.20;;;;;;;;;;5017077;28;20495;-63
2023/08/26 05:51:02;;;;;;;4.03;3.33;;;;;;;;;;5017305;28;20442;-63
2023/08/26 05:53:31;;;;;;;4.45;3.50;;;;;;;;;;5027614;28;20087;-63
2023/08/26 05:55:56;;;;;;;3.85;3.40;;;;;;;;;;5037013;28;20029;-63
2023/08/26 05:58:22;;;;;;;4.38;3.30;;;;;;;;;;5037011;28;20032;-63
2023/08/26 06:00:50;;;;;;;5.38;3.30;;;;;;;;;;5036772;28;20356;-64
2023/08/26 06:03:16;;;;;;;4.07;3.20;;;;;;;;;;5031110;28;20357;-63
2023/08/26 06:05:41;;;;;;;3.92;3.25;;;;;;;;;;5036001;28;20039;-63
2023/08/26 06:08:07;;;;;;;4.15;3.17;;;;;;;;;;5036708;28;20123;-63
2023/08/26 06:10:40;;;;;;;4.00;2.85;;;;;;;;;;5053458;28;20021;-64
2023/08/26 06:13:05;;;;;;;4.18;2.95;;;;;;;;;;5029119;28;20376;-63
2023/08/26 06:15:31;;;;;;;3.53;2.90;;;;;;;;;;5016674;28;20032;-63
2023/08/26 06:17:56;;;;;;;3.30;3.00;;;;;;;;;;5016788;28;20017;-63
2023/08/26 06:20:25;;;;;;;3.67;2.55;;;;;;;;;;5016749;28;20112;-63
2023/08/26 06:22:51;;;;;;;5.03;3.10;;;;;;;;;;5021222;28;20074;-63
2023/08/26 06:25:17;;;;;;;3.65;2.83;;;;;;;;;;5036303;28;20420;-63
2023/08/26 06:27:43;;;;;;;3.85;2.70;;;;;;;;;;5036198;28;20021;-63
2023/08/26 06:30:08;;;;;;;3.28;2.97;;;;;;;;;;5052485;28;20025;-63
2023/08/26 06:32:34;;;;;;;4.63;2.90;;;;;;;;;;5021613;28;20033;-63
2023/08/26 06:35:00;;;;;;;3.55;2.50;;;;;;;;;;5036227;28;20035;-62
2023/08/26 06:37:25;;;;;;;3.28;2.42;;;;;;;;;;5036297;28;20025;-63
2023/08/26 06:39:51;;;;;;;3.20;2.35;;;;;;;;;;5036073;28;20523;-63
2023/08/26 06:42:16;;;;;;;2.95;2.38;;;;;;;;;;5035917;28;20488;-65
2023/08/26 06:44:45;;;;;;;2.83;2.42;;;;;;;;;;5034740;28;20019;-63
2023/08/26 06:47:10;;;;;;;2.95;2.63;;;;;;;;;;5016176;28;20045;-63
2023/08/26 06:49:36;;;;;;;3.17;2.50;;;;;;;;;;5016249;28;20032;-63
2023/08/26 06:52:02;;;;;;;3.63;2.20;;;;;;;;;;5016273;28;20029;-63
2023/08/26 06:54:28;;;;;;;2.53;2.25;;;;;;;;;;5016631;28;20380;-63
2023/08/26 06:56:53;;;;;;;2.80;2.20;;;;;;;;;;5016038;28;20026;-63
2023/08/26 06:59:19;;;;;;;3.25;2.40;;;;;;;;;;5016234;28;20102;-63
2023/08/26 07:01:44;;;;;;;3.05;2.10;;;;;;;;;;5016093;28;20443;-63
2023/08/26 07:04:11;;;;;;;2.97;2.15;;;;;;;;;;5030332;28;20029;-63
2023/08/26 07:06:36;;;;;;;2.50;1.90;;;;;;;;;;5035611;28;20036;-64
2023/08/26 07:09:05;;;;;;;3.40;2.30;;;;;;;;;;5023692;28;20124;-63
2023/08/26 07:11:31;;;;;;;3.55;2.30;;;;;;;;;;5014288;28;20065;-63
2023/08/26 07:13:57;;;;;;;2.60;2.05;;;;;;;;;;5013924;28;20108;-63
2023/08/26 07:16:24;;;;;;;2.90;2.35;;;;;;;;;;5015362;28;20361;-63
2023/08/26 07:18:49;;;;;;;4.75;2.55;;;;;;;;;;5015273;28;20437;-63
2023/08/26 07:21:15;;;;;;;5.93;2.72;;;;;;;;;;5014324;28;20068;-62
2023/08/26 07:23:41;;;;;;;5.22;3.08;;;;;;;;;;5031861;28;20040;-64
2023/08/26 07:26:07;;;;;;;4.03;2.92;;;;;;;;;;5015370;28;20034;-63
2023/08/26 07:28:32;;;;;;;3.67;3.13;;;;;;;;;;5015396;28;20017;-63
2023/08/26 07:31:05;;;;;;;4.40;2.83;;;;;;;;;;5015750;28;20061;-63
2023/08/26 07:33:31;;;;;;;6.78;3.15;;;;;;;;;;5015358;28;20030;-62
2023/08/26 07:36:02;;;;;;;5.63;2.90;;;;;;;;;;5000304;28;20036;-63
2023/08/26 07:38:28;;;;;;;5.10;2.80;;;;;;;;;;4996178;28;20030;-63
2023/08/26 07:40:53;;;;;;;5.43;2.80;;;;;;;;;;4996652;28;20037;-63
2023/08/26 07:43:19;;;;;;;6.65;3.60;;;;;;;;;;4996200;28;20022;-64
2023/08/26 07:45:44;;;;;;;5.78;3.67;;;;;;;;;;4996096;28;20029;-62
2023/08/26 07:48:10;;;;;;;18.38;8.18;;;;;;;;;;4996086;28;20022;-64
2023/08/26 07:50:36;;;;;;;21.88;8.90;;;;;;;;;;4996299;28;20034;-62
2023/08/26 07:53:02;;;;;;;19.30;7.75;;;;;;;;;;5012205;28;20025;-62
2023/08/26 07:55:30;;;;;;;17.15;7.68;;;;;;;;;;5019070;28;20151;-62
2023/08/26 07:57:56;;;;;;;15.50;7.70;;;;;;;;;;5039658;28;20116;-63
2023/08/26 08:00:25;;;;;;;17.55;8.35;;;;;;;;;;5010309;28;20079;-62
2023/08/26 08:02:51;;;;;;;22.55;12.93;;;;;;;;;;5020360;28;20018;-64
2023/08/26 08:05:16;;;;;;;41.55;22.85;;;;;;;;;;5003902;28;20061;-62
2023/08/26 08:07:42;;;;;;;61.00;34.50;;;;;;;;;;5006854;28;20036;-62
2023/08/26 08:10:08;;;;;;;62.75;36.67;;;;;;;;;;5009298;28;20022;-62
2023/08/26 08:12:34;;;;;;;68.10;36.53;;;;;;;;;;5005461;28;20473;-62
2023/08/26 08:14:59;;;;;;;70.07;40.10;;;;;;;;;;5006123;28;20026;-61
2023/08/26 08:17:25;;;;;;;60.65;33.20;;;;;;;;;;5008156;28;20013;-62
2023/08/26 08:19:50;;;;;;;53.97;32.28;;;;;;;;;;5007842;28;20045;-62
2023/08/26 08:22:17;;;;;;;59.25;33.42;;;;;;;;;;5008290;28;20040;-62
2023/08/26 08:24:43;;;;;;;57.05;28.98;;;;;;;;;;5008517;28;20021;-61
2023/08/26 08:27:09;;;;;;;47.38;26.38;;;;;;;;;;5024331;28;20033;-61
2023/08/26 08:29:35;;;;;;;49.20;27.63;;;;;;;;;;5007024;28;20558;-62
2023/08/26 08:32:01;;;;;;;39.63;22.88;;;;;;;;;;5006560;28;20025;-61
2023/08/26 08:34:27;;;;;;;40.75;23.02;;;;;;;;;;5007596;28;20017;-62
2023/08/26 08:36:52;;;;;;;39.03;19.83;;;;;;;;;;5005942;28;20376;-62
2023/08/26 08:39:18;;;;;;;34.28;20.23;;;;;;;;;;5006326;28;20464;-61
2023/08/26 08:41:47;;;;;;;31.20;18.48;;;;;;;;;;5008104;28;20033;-63
2023/08/26 08:44:13;;;;;;;32.45;19.27;;;;;;;;;;5006304;28;20064;-62
2023/08/26 08:46:39;;;;;;;31.13;18.25;;;;;;;;;;5022844;28;20045;-62
2023/08/26 08:49:05;;;;;;;32.97;17.45;;;;;;;;;;5007252;28;20029;-62
2023/08/26 08:51:32;;;;;;;28.83;15.38;;;;;;;;;;5022161;28;20479;-62
2023/08/26 08:53:58;;;;;;;24.75;13.65;;;;;;;;;;5006347;28;20025;-63
2023/08/26 08:56:24;;;;;;;27.30;13.85;;;;;;;;;;5007325;28;20103;-63
2023/08/26 08:58:51;;;;;;;19.83;12.18;;;;;;;;;;5022073;28;20018;-62
2023/08/26 09:01:20;;;;;;;23.45;12.70;;;;;;;;;;5006505;28;20017;-61
2023/08/26 09:03:47;;;;;;;19.27;12.15;;;;;;;;;;5023393;28;20028;-62
2023/08/26 09:06:13;;;;;;;18.77;11.40;;;;;;;;;;5005602;28;20432;-62
2023/08/26 09:08:39;;;;;;;17.00;10.77;;;;;;;;;;5022037;28;20041;-62
2023/08/26 09:11:05;;;;;;;16.77;10.30;;;;;;;;;;5040432;28;20119;-62
2023/08/26 09:13:31;;;;;;;17.02;10.23;;;;;;;;;;5005547;28;20030;-62
2023/08/26 09:15:57;;;;;;;15.80;10.32;;;;;;;;;;5006382;28;20025;-61
2023/08/26 09:18:23;;;;;;;16.55;9.07;;;;;;;;;;5023012;28;20037;-62
2023/08/26 09:20:48;;;;;;;17.90;9.63;;;;;;;;;;5040213;28;20065;-62
2023/08/26 09:23:14;;;;;;;17.83;9.63;;;;;;;;;;5005985;28;20060;-62
2023/08/26 09:25:50;;;;;;;17.02;8.88;;;;;;;;;;5038377;28;20128;-61
2023/08/26 09:28:16;;;;;;;16.20;8.68;;;;;;;;;;5030848;28;20121;-61
2023/08/26 09:30:41;;;;;;;14.95;9.52;;;;;;;;;;5039665;28;20108;-62
2023/08/26 09:33:13;;;;;;;13.98;8.48;;;;;;;;;;5007257;28;20124;-61
2023/08/26 09:35:46;;;;;;;16.85;8.25;;;;;;;;;;5006625;28;20174;-62
2023/08/26 09:38:12;;;;;;;15.25;8.30;;;;;;;;;;5007628;28;20025;-62
2023/08/26 09:40:38;;;;;;;11.98;7.38;;;;;;;;;;5038451;28;20091;-62
2023/08/26 09:43:04;;;;;;;14.07;7.90;;;;;;;;;;5007134;28;20040;-63
2023/08/26 09:45:35;;;;;;;14.27;7.55;;;;;;;;;;5021414;28;20453;-62
2023/08/26 09:48:00;;;;;;;11.60;6.80;;;;;;;;;;5021616;28;20025;-62
2023/08/26 09:50:33;;;;;;;10.85;6.93;;;;;;;;;;5006465;28;20025;-62
2023/08/26 09:52:59;;;;;;;9.35;6.20;;;;;;;;;;5021945;28;20025;-61
2023/08/26 09:55:24;;;;;;;12.10;6.97;;;;;;;;;;5037251;28;20136;-62
2023/08/26 09:57:52;;;;;;;11.07;6.30;;;;;;;;;;5039352;28;20024;-61
2023/08/26 10:00:20;;;;;;;10.40;6.28;;;;;;;;;;5005723;28;20026;-61
2023/08/26 10:02:49;;;;;;;11.85;6.90;;;;;;;;;;5020670;28;20030;-61
2023/08/26 10:05:18;;;;;;;12.25;6.70;;;;;;;;;;5021672;28;20036;-61
2023/08/26 10:07:48;;;;;;;10.77;6.95;;;;;;;;;;5006586;28;20033;-60
2023/08/26 10:10:16;;;;;;;13.00;7.00;;;;;;;;;;5008177;28;20029;-60
2023/08/26 10:12:43;;;;;;;13.55;6.85;;;;;;;;;;5006181;28;20492;-61
2023/08/26 10:15:13;;;;;;;11.07;6.88;;;;;;;;;;5036956;28;20029;-61
2023/08/26 10:17:47;;;;;;;10.07;6.65;;;;;;;;;;5037614;28;20111;-61
2023/08/26 10:20:13;;;;;;;10.52;6.07;;;;;;;;;;5029044;28;20029;-61
2023/08/26 10:22:39;;;;;;;10.00;7.00;;;;;;;;;;5020852;28;20030;-60
2023/08/26 10:25:05;;;;;;;11.85;6.20;;;;;;;;;;5021985;28;20028;-62
2023/08/26 10:27:31;;;;;;;11.52;6.78;;;;;;;;;;5004066;28;20041;-62
2023/08/26 10:29:58;;;;;;;10.38;6.57;;;;;;;;;;5024162;28;20024;-60
2023/08/26 10:32:27;;;;;;;11.27;6.22;;;;;;;;;;5020493;28;20013;-61
2023/08/26 10:34:56;;;;;;;12.15;6.13;;;;;;;;;;5028964;28;20124;-60
2023/08/26 10:37:31;;;;;;;9.68;5.85;;;;;;;;;;5036813;28;20487;-61
2023/08/26 10:39:57;;;;;;;12.52;6.03;;;;;;;;;;5031210;28;20464;-60
2023/08/26 10:42:23;;;;;;;11.38;6.68;;;;;;;;;;5049594;28;20101;-60
2023/08/26 10:44:55;;;;;;;11.57;6.78;;;;;;;;;;5049364;28;20064;-60
2023/08/26 10:47:41;;;;;;;9.43;5.93;;;;;;;;;;5049206;28;20468;-60
2023/08/26 10:50:20;;;;;;;10.75;6.00;;;;;;;;;;5015806;28;20025;-61
2023/08/26 10:52:52;;;;;;;9.15;5.88;;;;;;;;;;5032460;28;20023;-61
2023/08/26 10:55:19;;;;;;;8.88;5.38;;;;;;;;;;5031979;28;20384;-60
2023/08/26 10:57:59;;;;;;;8.70;5.65;;;;;;;;;;5016066;28;20095;-60
2023/08/26 11:00:25;;;;;;;9.93;5.53;;;;;;;;;;5016347;28;20075;-61
2023/08/26 11:02:51;;;;;;;7.45;5.13;;;;;;;;;;5016195;28;20021;-60
2023/08/26 11:05:16;;;;;;;9.20;4.80;;;;;;;;;;5032204;28;20029;-61
2023/08/26 11:07:42;;;;;;;7.53;5.00;;;;;;;;;;5016677;28;20029;-61
2023/08/26 11:10:07;;;;;;;7.72;5.05;;;;;;;;;;5016240;28;20372;-60
2023/08/26 11:12:33;;;;;;;8.90;5.10;;;;;;;;;;5016222;28;20034;-60
2023/08/26 11:15:05;;;;;;;7.22;4.95;;;;;;;;;;5016148;28;20079;-61
2023/08/26 11:17:32;;;;;;;8.75;4.68;;;;;;;;;;5032394;28;20472;-61
2023/08/26 11:19:57;;;;;;;6.95;4.53;;;;;;;;;;5016080;28;20033;-61
2023/08/26 11:22:24;;;;;;;7.53;4.65;;;;;;;;;;5016091;28;20108;-60
2023/08/26 11:24:50;;;;;;;7.03;5.00;;;;;;;;;;5016087;28;20026;-61
2023/08/26 11:27:16;;;;;;;6.93;4.28;;;;;;;;;;5015802;28;20388;-60
2023/08/26 11:29:42;;;;;;;7.72;4.20;;;;;;;;;;4999738;28;20026;-61
2023/08/26 11:32:08;;;;;;;6.63;4.15;;;;;;;;;;5016011;28;20036;-60
2023/08/26 11:34:34;;;;;;;7.05;4.55;;;;;;;;;;5016046;28;20030;-61
2023/08/26 11:36:59;;;;;;;6.70;4.22;;;;;;;;;;5015939;28;20033;-61
2023/08/26 11:39:29;;;;;;;7.85;4.70;;;;;;;;;;5016033;28;20028;-61
2023/08/26 11:41:54;;;;;;;7.22;4.32;;;;;;;;;;5018798;28;20112;-61
2023/08/26 11:44:20;;;;;;;5.50;4.20;;;;;;;;;;5020569;28;20116;-60
2023/08/26 11:46:45;;;;;;;6.95;4.03;;;;;;;;;;5019633;28;20464;-61
2023/08/26 11:49:11;;;;;;;6.03;4.10;;;;;;;;;;5019713;28;20026;-61
2023/08/26 11:51:40;;;;;;;6.95;4.18;;;;;;;;;;5019703;28;20028;-61
2023/08/26 11:54:07;;;;;;;7.35;4.50;;;;;;;;;;5019724;28;20132;-61
2023/08/26 11:56:32;;;;;;;7.70;4.40;;;;;;;;;;5019615;28;20029;-61
2023/08/26 11:58:58;;;;;;;5.82;4.05;;;;;;;;;;5019584;28;20024;-60
2023/08/26 12:01:24;;;;;;;6.22;3.95;;;;;;;;;;5019238;28;20061;-61
2023/08/26 12:03:50;;;;;;;7.38;4.43;;;;;;;;;;5019455;28;20083;-61
2023/08/26 12:06:18;;;;;;;6.05;4.25;;;;;;;;;;5019450;28;20049;-61
2023/08/26 12:08:49;;;;;;;6.28;4.00;;;;;;;;;;5003097;28;20375;-61
2023/08/26 12:11:15;;;;;;;6.75;3.70;;;;;;;;;;5019302;28;20040;-60
2023/08/26 12:13:41;;;;;;;6.10;4.20;;;;;;;;;;5019236;28;20128;-61
2023/08/26 12:16:07;;;;;;;6.93;4.05;;;;;;;;;;5019301;28;20137;-61
2023/08/26 12:18:33;;;;;;;7.47;3.80;;;;;;;;;;5019223;28;20025;-61
2023/08/26 12:20:59;;;;;;;6.38;3.85;;;;;;;;;;5019404;28;20160;-61
2023/08/26 12:23:25;;;;;;;5.30;3.80;;;;;;;;;;5035664;28;20029;-61
2023/08/26 12:25:51;;;;;;;6.03;3.92;;;;;;;;;;5035397;28;20490;-61
2023/08/26 12:28:18;;;;;;;5.47;3.58;;;;;;;;;;5019086;28;20025;-60
2023/08/26 12:30:44;;;;;;;5.70;3.83;;;;;;;;;;5035061;28;20108;-62
2023/08/26 12:33:10;;;;;;;6.68;3.88;;;;;;;;;;5018913;28;20039;-61
2023/08/26 12:35:37;;;;;;;6.47;3.72;;;;;;;;;;5018931;28;20446;-60
2023/08/26 12:38:03;;;;;;;5.10;3.67;;;;;;;;;;5035347;28;20029;-60
2023/08/26 12:40:33;;;;;;;5.25;3.78;;;;;;;;;;5018884;28;20116;-61
2023/08/26 12:42:59;;;;;;;5.38;3.50;;;;;;;;;;5018764;28;20052;-62
2023/08/26 12:45:24;;;;;;;6.10;3.67;;;;;;;;;;5018657;28;20022;-61
2023/08/26 12:47:50;;;;;;;7.10;3.85;;;;;;;;;;5002406;28;20083;-60
2023/08/26 12:50:16;;;;;;;5.07;3.40;;;;;;;;;;5018687;28;20365;-61
2023/08/26 12:52:41;;;;;;;5.93;3.25;;;;;;;;;;5017713;28;20033;-61
2023/08/26 12:55:07;;;;;;;5.28;3.75;;;;;;;;;;5018505;28;20109;-61
2023/08/26 12:57:32;;;;;;;5.60;3.40;;;;;;;;;;5019117;28;20034;-60
2023/08/26 12:59:58;;;;;;;5.38;3.47;;;;;;;;;;5018698;28;20365;-60
2023/08/26 13:02:23;;;;;;;7.43;3.97;;;;;;;;;;5018445;28;20022;-61
2023/08/26 13:04:49;;;;;;;5.57;3.38;;;;;;;;;;5018291;28;20372;-62
2023/08/26 13:07:15;;;;;;;6.88;3.47;;;;;;;;;;5018104;28;20037;-61
2023/08/26 13:09:41;;;;;;;5.55;3.42;;;;;;;;;;5017947;28;20021;-61
2023/08/26 13:12:06;;;;;;;5.45;3.22;;;;;;;;;;5018307;28;20379;-61
2023/08/26 13:14:32;;;;;;;5.07;3.08;;;;;;;;;;5017913;28;20167;-60
2023/08/26 13:16:58;;;;;;;6.70;3.25;;;;;;;;;;5018168;28;20103;-60
2023/08/26 13:19:24;;;;;;;5.43;3.00;;;;;;;;;;5017780;28;20546;-60
2023/08/26 13:21:49;;;;;;;4.80;3.10;;;;;;;;;;5018127;28;20061;-60
2023/08/26 13:24:15;;;;;;;6.03;3.60;;;;;;;;;;5018612;28;20017;-61
2023/08/26 13:26:41;;;;;;;4.60;3.13;;;;;;;;;;5017879;28;20440;-61
2023/08/26 13:29:06;;;;;;;5.63;3.15;;;;;;;;;;5017731;28;20375;-61
2023/08/26 13:31:32;;;;;;;4.68;3.13;;;;;;;;;;5017692;28;20017;-62
2023/08/26 13:33:58;;;;;;;6.78;3.15;;;;;;;;;;5017870;28;20075;-61
2023/08/26 13:36:23;;;;;;;4.70;3.28;;;;;;;;;;5017708;28;20036;-61
2023/08/26 13:38:49;;;;;;;6.32;3.00;;;;;;;;;;5017780;28;20025;-61
2023/08/26 13:41:14;;;;;;;4.78;2.95;;;;;;;;;;5017679;28;20464;-61
2023/08/26 13:43:42;;;;;;;5.07;3.08;;;;;;;;;;5017642;28;20036;-61
2023/08/26 13:46:08;;;;;;;4.03;3.08;;;;;;;;;;5017519;28;20060;-60
2023/08/26 13:48:33;;;;;;;5.97;2.90;;;;;;;;;;5017563;28;20057;-61
2023/08/26 13:50:59;;;;;;;5.97;2.92;;;;;;;;;;5017503;28;20036;-60
2023/08/26 13:53:24;;;;;;;5.70;3.20;;;;;;;;;;5018043;28;20032;-60
2023/08/26 13:55:55;;;;;;;4.28;3.03;;;;;;;;;;5017428;28;20461;-61
2023/08/26 13:58:21;;;;;;;4.07;2.75;;;;;;;;;;5017343;28;20026;-61
2023/08/26 14:00:47;;;;;;;4.97;2.58;;;;;;;;;;5034578;28;20065;-61
2023/08/26 14:03:13;;;;;;;4.50;2.80;;;;;;;;;;5017216;28;20068;-61
2023/08/26 14:05:43;;;;;;;4.57;3.10;;;;;;;;;;5017341;28;20094;-60
2023/08/26 14:08:09;;;;;;;5.47;2.67;;;;;;;;;;5033706;28;20057;-61
2023/08/26 14:10:35;;;;;;;4.00;2.70;;;;;;;;;;5017165;28;20029;-61
2023/08/26 14:13:00;;;;;;;3.35;2.45;;;;;;;;;;5017170;28;20033;-61
2023/08/26 14:15:26;;;;;;;5.00;2.97;;;;;;;;;;5017936;28;20127;-61
2023/08/26 14:17:51;;;;;;;4.35;2.72;;;;;;;;;;5017046;28;20376;-61
2023/08/26 14:20:17;;;;;;;4.20;2.50;;;;;;;;;;5016923;28;20030;-61
2023/08/26 14:22:42;;;;;;;5.22;2.78;;;;;;;;;;5016875;28;20033;-61
2023/08/26 14:25:09;;;;;;;4.50;2.80;;;;;;;;;;5016678;28;20022;-61
2023/08/26 14:27:35;;;;;;;3.78;2.67;;;;;;;;;;5016533;28;20499;-61
2023/08/26 14:30:00;;;;;;;4.68;3.13;;;;;;;;;;5016855;28;20057;-61